North Dighton, MA

41° 51' 30"N, 71° 08' 44"W, Elevation 95 ft.
Eastern Time

Hourly observations for the last 72 hours

Date Time Temperature (°F) Humi-
dity

(%)
Wind
(mph)
Pressure Rain (in) Sun
(W/m2)
UV ET
(in)
Air Dew 6 Hour 1 Hr 3 Hr 6 Hr Day
Alt
(in)
Sea
Level

(mb)
Max Min
17 07:00 38.5 36.1 91 N 11 G 15 29.64 1003.8 0.01 91 0.0 0.000
17 06:00 37.7 35.9 93 NNW 10 G 16 29.62 1003.1 0.01 0.01 0 0.0 0.000
17 05:00 37.5 35.9 94 NNW 11 G 16 29.60 1002.5 0.00 0 0.0 0.000
17 04:00 37.5 35.9 94 N 8 G 17 29.58 1001.8 0.00 0 0.0 0.000
17 03:00 37.6 35.5 92 N 11 G 17 29.56 1001.1 0.00 0 0.0 0.000
17 02:00 37.5 35.4 37.7 35.9 92 NNW 8 G 13 29.55 1000.6 0.02 0.00 0 0.0 0.000
17 01:00 37.2 35.1 92 N 10 G 16 29.54 1000.5 0.00 0 0.0 0.000
17 00:00 36.8 35.0 93 NNW 12 G 17 29.53 1000.0 1.04 0 0.0 0.017
16 23:00 36.8 35.0 93 N 14 G 22 29.51 999.4 0.02 1.05 0 0.0 0.017
16 22:00 36.6 34.8 93 N 15 G 27 29.50 999.1 1.05 0 0.0 0.017
16 21:00 36.3 34.5 93 N 9 G 26 29.49 998.6 0.02 1.05 0 0.0 0.017
16 20:00 36.0 34.4 37.3 35.7 94 NNW 15 G 21 29.45 997.5 0.02 0.04 0.07 1.03 0 0.0 0.017
16 19:00 36.2 34.6 94 NNW 15 G 24 29.40 995.7 0.01 1.01 0 0.0 0.017
16 18:00 36.7 35.1 94 N 16 G 28 29.36 994.3 0.01 1.00 28 0.0 0.016
16 17:00 37.2 35.4 93 NNW 16 G 26 29.31 992.7 0.01 0.03 0.99 16 0.0 0.015
16 16:00 36.6 34.5 92 NW 17 G 32 29.29 992.0 0.01 0.98 33 0.0 0.014
16 15:00 36.0 34.2 93 WNW 13 G 27 29.31 992.6 0.01 0.97 44 0.0 0.013
16 14:00 36.0 33.9 41.0 34.5 92 NW 19 G 27 29.34 993.7 0.01 0.06 0.32 0.96 32 0.0 0.011
16 13:00 35.7 33.9 93 NNW 16 G 28 29.36 994.4 0.01 0.95 120 0.8 0.009
16 12:00 35.7 33.9 93 NNW 12 G 25 29.39 995.3 0.04 0.94 151 0.9 0.006
16 11:00 34.6 33.1 94 NNW 12 G 23 29.42 996.4 0.05 0.26 0.90 116 0.7 0.004
16 10:00 35.5 33.9 94 NNW 11 G 18 29.46 997.7 0.10 0.85 81 0.0 0.002
16 09:00 37.7 35.6 92 N 11 G 20 29.48 998.3 0.11 0.74 74 0.0 0.001
16 08:00 41.0 39.1 41.7 38.9 93 N 9 G 16 29.49 998.5 0.13 0.33 0.45 0.63 35 0.0 0.000
16 07:00 41.7 40.4 95 N 8 G 16 29.50 999.0 0.10 0.50 18 0.0 0.000
16 06:00 41.0 39.7 95 N 6 G 12 29.52 999.7 0.10 0.40 0 0.0 0.000
16 05:00 40.0 38.7 95 N 9 G 14 29.55 1000.5 0.07 0.12 0.30 0 0.0 0.000
16 04:00 39.2 37.9 95 N 7 G 11 29.58 1001.9 0.04 0.23 0 0.0 0.000
16 03:00 39.1 37.5 94 N 6 G 9 29.61 1002.7 0.01 0.19 0 0.0 0.000
16 02:00 39.5 37.6 41.9 39.4 93 NE 6 G 12 29.64 1003.7 0.14 0.26 0.56 0.18 0 0.0 0.000
16 01:00 40.2 38.6 94 NNE 6 G 10 29.67 1004.7 0.04 0.04 0 0.0 0.000
16 00:00 40.0 38.4 94 N 3 G 9 29.67 1004.7 0.08 0.46 0 0.0 0.065
15 23:00 40.0 38.1 93 NE 4 G 11 29.67 1004.9 0.11 0.30 0.39 0 0.0 0.065
15 22:00 40.4 38.0 91 ENE 6 G 15 29.69 1005.6 0.05 0.28 0 0.0 0.065
15 21:00 40.4 37.7 90 NE 4 G 11 29.71 1006.3 0.14 0.23 0 0.0 0.065
15 20:00 41.9 38.0 54.3 41.9 86 E 5 G 10 29.73 1006.7 0.08 0.09 0.09 0.09 0 0.0 0.065
15 19:00 45.8 39.7 79 ESE 2 G 3 29.72 1006.6 0.01 0.01 0 0.0 0.064
15 18:00 46.9 36.1 66 ESE 3 G 8 29.72 1006.5 0.00 25 0.0 0.061
15 17:00 48.0 32.2 54 ESE 7 G 11 29.74 1007.1 0.00 47 0.0 0.057
15 16:00 51.2 28.3 41 SE 6 G 19 29.76 1007.8 0.00 69 0.0 0.050
15 15:00 52.7 29.1 40 SSE 14 G 23 29.76 1007.8 0.00 186 1.1 0.040
15 14:00 52.4 31.7 53.0 45.3 45 ESE 6 G 18 29.77 1008.3 0.00 207 1.4 0.031
15 13:00 51.7 33.2 49 SSE 7 G 14 29.80 1009.2 0.00 188 1.3 0.024
15 12:00 51.7 32.6 48 SSE 9 G 12 29.82 1009.9 0.00 156 1.0 0.018
15 11:00 51.7 34.2 51 SE 11 G 16 29.83 1010.2 0.00 148 0.9 0.011
15 10:00 50.5 38.8 64 SSE 8 G 16 29.84 1010.5 0.00 211 1.2 0.006
15 09:00 47.8 40.9 77 SSE 5 G 11 29.84 1010.7 0.00 169 0.7 0.002
15 08:00 45.3 40.8 45.3 40.8 84 SE 5 G 8 29.85 1010.8 0.00 100 0.0 0.000
15 07:00 42.5 39.8 90 ESE 2 G 5 29.85 1011.0 0.00 49 0.0 0.000
15 06:00 41.0 38.9 92 SE 2 G 3 29.86 1011.1 0.00 0 0.0 0.000
15 05:00 41.1 39.0 92 Calm 29.87 1011.6 0.00 0 0.0 0.000
15 04:00 41.0 38.9 92 SE 2 G 4 29.89 1012.1 0.00 0 0.0 0.000
15 03:00 42.0 39.6 91 SE 2 G 4 29.89 1012.3 0.00 0 0.0 0.000
15 02:00 43.3 40.3 47.9 43.3 89 SSE 2 G 4 29.90 1012.7 0.00 0 0.0 0.000
15 01:00 43.8 40.5 88 SSE 2 G 4 29.91 1013.0 0.00 0 0.0 0.000
15 00:00 44.2 40.6 87 SE 3 G 6 29.92 1013.3 0.01 0 0.0 0.138
14 23:00 44.6 40.1 84 SSE 2 G 7 29.93 1013.7 0.01 0 0.0 0.138
14 22:00 45.6 39.8 80 SE 3 G 5 29.94 1014.1 0.01 0 0.0 0.138
14 21:00 45.9 38.8 76 S 3 G 7 29.95 1014.1 0.01 0 0.0 0.138
14 20:00 47.9 39.3 62.7 47.9 72 S 6 G 8 29.94 1013.9 0.01 0 0.0 0.138
14 19:00 51.4 40.8 67 S 4 G 9 29.94 1014.0 0.01 33 0.0 0.136
14 18:00 55.1 42.7 63 SSW 5 G 14 29.94 1014.0 0.01 206 0.0 0.128
14 17:00 57.2 43.9 61 S 8 G 14 29.94 1014.1 0.01 411 1.1 0.115
14 16:00 59.1 44.8 59 SSW 7 G 17 29.95 1014.3 0.01 584 2.2 0.098
14 15:00 61.3 46.9 59 SW 6 G 13 29.96 1014.5 0.01 809 3.5 0.080
14 14:00 61.8 48.2 61.8 46.8 61 ESE 8 G 11 29.98 1015.1 0.01 926 4.9 0.060
14 13:00 57.9 45.8 64 SSW 4 G 10 30.00 1015.8 0.01 666 3.7 0.042
14 12:00 57.0 46.2 67 ESE 2 G 9 30.02 1016.6 0.01 949 4.4 0.025
14 11:00 54.9 46.8 74 ESE 2 G 12 30.04 1017.4 0.01 932 4.5 0.013
14 10:00 50.6 42.3 73 E 6 G 12 30.06 1018.0 0.01 260 1.3 0.007
14 09:00 48.7 42.8 80 SE 5 G 9 30.07 1018.2 0.01 283 1.1 0.003
14 08:00 47.2 44.1 47.3 40.2 89 SE 2 G 3 30.06 1018.1 0.01 0.01 0.01 111 0.5 0.000

Data generated by WxSolution Version 1.9.1.8, Build 2021.02.21.